createdAt,value
2022-08-12T00:03:57.567Z,101229.38
2022-08-12T00:09:17.526Z,101238.31
2022-08-12T00:14:37.499Z,101224.16
2022-08-12T00:19:57.304Z,101229.38
2022-08-12T00:25:20.956Z,101231.28
2022-08-12T00:31:01.113Z,101219.63
2022-08-12T00:36:34.888Z,101229.59
2022-08-12T00:41:56.557Z,101225.03
2022-08-12T00:46:59.734Z,101225.47
2022-08-12T00:52:11.393Z,101219.81
2022-08-12T00:57:12.758Z,101219.25
2022-08-12T01:02:21.197Z,101223.63
2022-08-12T01:07:43.120Z,101224.53
2022-08-12T01:12:44.768Z,101227.00
2022-08-12T01:17:46.302Z,101234.53
2022-08-12T01:22:58.512Z,101233.19
2022-08-12T01:28:01.870Z,101236.88
2022-08-12T01:33:05.992Z,101238.97
2022-08-12T01:38:11.110Z,101244.47
2022-08-12T01:43:15.884Z,101236.22
2022-08-12T01:48:23.159Z,101241.31
2022-08-12T01:53:26.087Z,101245.78
2022-08-12T01:58:55.302Z,101239.13
2022-08-12T02:04:25.133Z,101236.72
2022-08-12T02:09:51.996Z,101243.03
2022-08-12T02:15:01.402Z,101241.63
2022-08-12T02:20:12.892Z,101247.75
2022-08-12T02:25:26.859Z,101248.72
2022-08-12T02:30:33.240Z,101240.06
2022-08-12T02:35:43.141Z,101238.88
2022-08-12T02:40:48.820Z,101244.56
2022-08-12T02:45:56.590Z,101238.28
2022-08-12T02:51:04.322Z,101246.25
2022-08-12T02:56:06.526Z,101248.03
2022-08-12T03:01:10.251Z,101251.50
2022-08-12T03:06:17.534Z,101250.66
2022-08-12T03:11:23.498Z,101252.72
2022-08-12T03:16:26.807Z,101241.78
2022-08-12T03:21:54.660Z,101236.31
2022-08-12T03:26:51.684Z,101237.34
2022-08-12T03:31:55.879Z,101244.59
2022-08-12T03:36:58.559Z,101255.72
2022-08-12T03:42:04.252Z,101247.66
2022-08-12T03:47:30.521Z,101262.16
2022-08-12T03:52:50.564Z,101257.13
2022-08-12T03:58:10.416Z,101256.50
2022-08-12T04:03:30.949Z,101261.53
2022-08-12T04:08:32.478Z,101268.19
2022-08-12T04:13:34.081Z,101266.94
2022-08-12T04:18:35.828Z,101274.81
2022-08-12T04:23:47.646Z,101278.47
2022-08-12T04:28:49.676Z,101279.88
2022-08-12T04:33:51.349Z,101276.88
2022-08-12T04:38:59.563Z,101283.09
2022-08-12T04:44:02.571Z,101276.47
2022-08-12T04:49:05.162Z,101282.16
2022-08-12T04:54:06.549Z,101280.94
2022-08-12T04:59:07.900Z,101274.50
2022-08-12T05:04:09.403Z,101273.31
2022-08-12T05:09:13.391Z,101275.97
2022-08-12T05:14:15.146Z,101280.41
2022-08-12T05:19:18.493Z,101276.16
2022-08-12T05:24:23.704Z,101288.47
2022-08-12T05:30:06.206Z,101280.94
2022-08-12T05:34:47.741Z,101280.50
2022-08-12T05:39:49.807Z,101284.78
2022-08-12T05:44:51.175Z,101287.03
2022-08-12T05:49:53.593Z,101286.97
2022-08-12T05:54:57.866Z,101289.53
2022-08-12T05:59:59.461Z,101285.00
2022-08-12T06:05:00.879Z,101288.47
2022-08-12T06:10:02.250Z,101286.56
2022-08-12T06:15:04.345Z,101281.56
2022-08-12T06:20:27.208Z,101283.34
2022-08-12T06:25:29.163Z,101278.59
2022-08-12T06:30:36.856Z,101276.63
2022-08-12T06:35:48.620Z,101273.31
2022-08-12T06:41:14.824Z,101268.44
2022-08-12T06:46:16.182Z,101262.16
2022-08-12T06:51:19.847Z,101261.97
2022-08-12T06:56:27.345Z,101256.78
2022-08-12T07:01:50.819Z,101252.50
2022-08-12T07:06:55.728Z,101243.63
2022-08-12T07:11:57.122Z,101247.81
2022-08-12T07:17:02.327Z,101243.06
2022-08-12T07:22:06.443Z,101240.06
2022-08-12T07:27:07.839Z,101241.78
2022-08-12T07:32:09.173Z,101248.91
2022-08-12T07:37:10.755Z,101256.00
2022-08-12T07:42:12.128Z,101248.41
2022-08-12T07:47:13.476Z,101250.22
2022-08-12T07:52:17.013Z,101248.31
2022-08-12T07:57:18.593Z,101248.91
2022-08-12T08:02:20.011Z,101247.66
2022-08-12T08:07:30.693Z,101249.88
2022-08-12T08:12:51.225Z,101240.53
2022-08-12T08:17:57.845Z,101243.03
2022-08-12T08:23:00.897Z,101241.56
2022-08-12T08:28:03.563Z,101236.69
2022-08-12T08:33:24.623Z,101234.03
2022-08-12T08:38:33.059Z,101234.97
2022-08-12T08:43:43.942Z,101237.22
2022-08-12T08:48:46.116Z,101240.91
2022-08-12T08:53:51.913Z,101228.78
2022-08-12T08:58:54.552Z,101227.13
2022-08-12T09:05:09.309Z,101217.22
2022-08-12T09:09:17.706Z,101232.03
2022-08-12T09:14:29.148Z,101210.13
2022-08-12T09:19:30.935Z,101212.69
2022-08-12T09:24:37.218Z,101210.19
2022-08-12T09:30:08.937Z,101212.06
2022-08-12T09:34:59.906Z,101217.34
2022-08-12T09:42:07.369Z,101208.31
2022-08-12T09:45:24.214Z,101197.00
2022-08-12T09:50:50.677Z,101197.78
2022-08-12T09:56:01.206Z,101184.78
2022-08-12T10:01:22.854Z,101176.69
2022-08-12T10:06:32.355Z,101176.31
2022-08-12T10:12:10.858Z,101169.56
2022-08-12T10:17:14.519Z,101171.72
2022-08-12T10:22:16.946Z,101162.94
2022-08-12T10:28:04.550Z,101154.66
2022-08-12T10:33:18.005Z,101138.59
2022-08-12T10:38:37.371Z,101141.38
2022-08-12T10:43:55.343Z,101131.22
2022-08-12T10:49:06.976Z,101125.66
2022-08-12T10:54:19.691Z,101121.13
2022-08-12T11:00:29.263Z,101114.81
2022-08-12T11:04:59.464Z,101119.56
2022-08-12T11:10:20.249Z,101096.91
2022-08-12T11:16:02.424Z,101081.06
2022-08-12T11:20:52.122Z,101089.00
2022-08-12T11:25:58.162Z,101077.84
2022-08-12T11:31:01.306Z,101075.97
2022-08-12T11:36:14.782Z,101083.41
2022-08-12T11:41:16.584Z,101066.03
2022-08-12T11:46:29.638Z,101073.75
2022-08-12T11:51:36.308Z,101056.31
2022-08-12T11:56:42.866Z,101061.81
2022-08-12T12:02:02.458Z,101057.69
2022-08-12T12:07:11.374Z,101059.19
2022-08-12T12:12:12.989Z,101040.44
2022-08-12T12:17:14.338Z,101032.31
2022-08-12T12:22:32.014Z,101020.66
2022-08-12T12:28:04.717Z,101009.47
2022-08-12T12:33:08.940Z,100998.84
2022-08-12T12:38:12.086Z,101007.38
2022-08-12T12:43:14.241Z,101009.25
2022-08-12T12:48:20.139Z,100985.44
2022-08-12T12:54:08.095Z,100979.19
2022-08-12T12:58:46.953Z,100978.06
2022-08-12T13:03:48.948Z,100958.53
2022-08-12T13:08:50.868Z,100955.75
2022-08-12T13:14:09.649Z,100960.41
2022-08-12T13:19:15.183Z,100954.22
2022-08-12T13:24:16.634Z,100942.25
2022-08-12T13:29:20.473Z,100940.78
2022-08-12T13:34:29.570Z,100938.09
2022-08-12T13:39:36.453Z,100932.97
2022-08-12T13:44:37.868Z,100927.38
2022-08-12T13:49:53.641Z,100935.13
2022-08-12T13:54:56.614Z,100927.38
2022-08-12T14:00:00.759Z,100911.19
2022-08-12T14:05:03.392Z,100918.78
2022-08-12T14:10:39.220Z,100920.59
2022-08-12T14:15:53.978Z,100914.69
2022-08-12T14:21:01.781Z,100921.47
2022-08-12T14:26:06.981Z,100935.34
2022-08-12T14:31:18.256Z,100913.78
2022-08-12T14:36:21.075Z,100901.56
2022-08-12T14:41:36.557Z,100919.31
2022-08-12T14:46:38.910Z,100902.56
2022-08-12T14:53:13.534Z,100909.50
2022-08-12T14:57:20.627Z,100900.88
2022-08-12T15:02:26.494Z,100895.66
2022-08-12T15:07:33.787Z,100896.06
2022-08-12T15:12:50.979Z,100882.69
2022-08-12T15:17:59.227Z,100893.19
2022-08-12T15:23:01.211Z,100892.59
2022-08-12T15:28:05.709Z,100873.19
2022-08-12T15:33:14.999Z,100870.06
2022-08-12T15:38:19.550Z,100876.25
2022-08-12T15:43:51.807Z,100874.72
2022-08-12T15:48:46.733Z,100871.06
2022-08-12T15:54:34.160Z,100862.78
2022-08-12T15:59:51.959Z,100869.78
2022-08-12T16:04:51.450Z,100866.56
2022-08-12T16:10:04.756Z,100866.34
2022-08-12T16:15:13.252Z,100874.00
2022-08-12T16:20:22.695Z,100876.09
2022-08-12T16:26:02.751Z,100861.88
2022-08-12T16:30:56.279Z,100858.44
2022-08-12T16:35:57.623Z,100853.56
2022-08-12T16:41:01.436Z,100843.88
2022-08-12T16:46:07.735Z,100844.34
2022-08-12T16:51:25.520Z,100845.63
2022-08-12T16:56:28.889Z,100844.84
2022-08-12T17:01:35.927Z,100844.22
2022-08-12T17:06:43.301Z,100847.06
2022-08-12T17:11:45.381Z,100853.44
2022-08-12T17:16:52.228Z,100846.00
2022-08-12T17:22:02.216Z,100842.00
2022-08-12T17:27:12.826Z,100836.00
2022-08-12T17:32:22.148Z,100837.41
2022-08-12T17:37:29.516Z,100841.69
2022-08-12T17:42:34.130Z,100843.69
2022-08-12T17:47:36.926Z,100851.44
2022-08-12T17:52:38.811Z,100842.19
2022-08-12T17:57:42.534Z,100844.09
2022-08-12T18:02:48.224Z,100847.19
2022-08-12T18:07:55.021Z,100858.00
2022-08-12T18:13:01.229Z,100855.00
2022-08-12T18:18:03.761Z,100866.50
2022-08-12T18:23:06.034Z,100861.16
2022-08-12T18:28:16.437Z,100868.66
2022-08-12T18:33:23.748Z,100877.03
2022-08-12T18:38:26.947Z,100890.91
2022-08-12T18:43:28.373Z,100901.19
2022-08-12T18:48:32.081Z,100893.78
2022-08-12T18:54:07.001Z,100902.03
2022-08-12T18:58:59.829Z,100895.16
2022-08-12T19:04:08.884Z,100901.06
2022-08-12T19:09:14.570Z,100907.94
2022-08-12T19:14:25.434Z,100908.19
2022-08-12T19:19:42.020Z,100906.94
2022-08-12T19:25:03.165Z,100916.38
2022-08-12T19:30:09.229Z,100919.28
2022-08-12T19:40:34.400Z,100922.06
2022-08-12T19:45:43.472Z,100924.28
2022-08-12T19:50:52.707Z,100932.34
2022-08-12T19:55:55.498Z,100945.44
2022-08-12T20:00:56.884Z,100936.09
2022-08-12T20:06:05.389Z,100947.50
2022-08-12T20:12:11.141Z,100952.81
2022-08-12T20:16:52.427Z,100939.41
2022-08-12T20:21:58.179Z,100950.78
2022-08-12T20:27:00.228Z,100944.59
2022-08-12T20:32:04.020Z,100953.59
2022-08-12T20:37:10.253Z,100950.34
2022-08-12T20:42:11.761Z,100953.94
2022-08-12T20:47:19.729Z,100954.91
2022-08-12T20:52:22.518Z,100951.16
2022-08-12T20:57:38.486Z,100958.91
2022-08-12T21:02:47.275Z,100959.09
2022-08-12T21:07:52.653Z,100966.88
2022-08-12T21:12:54.244Z,100967.00
2022-08-12T21:18:12.003Z,100960.78
2022-08-12T21:23:25.456Z,100956.59
2022-08-12T21:28:33.459Z,100969.78
2022-08-12T21:34:06.190Z,100970.47
2022-08-12T21:39:18.015Z,100972.59
2022-08-12T21:44:24.592Z,100971.41
2022-08-12T21:49:53.803Z,100978.03
2022-08-12T21:54:59.591Z,100984.81
2022-08-12T22:00:00.948Z,100985.72
2022-08-12T22:05:22.228Z,100998.38
2022-08-12T22:10:28.226Z,100984.75
2022-08-12T22:15:30.675Z,100990.03
2022-08-12T22:20:32.009Z,100991.31
2022-08-12T22:25:33.346Z,100991.28
2022-08-12T22:30:59.904Z,100994.84
2022-08-12T22:36:02.029Z,100989.53
2022-08-12T22:41:06.514Z,100992.53
2022-08-12T22:46:22.715Z,100989.69
2022-08-12T22:51:57.713Z,100990.47
2022-08-12T22:56:55.476Z,100992.53
2022-08-12T23:02:01.962Z,100996.38
2022-08-12T23:07:05.464Z,100992.94
2022-08-12T23:12:08.536Z,100985.00
2022-08-12T23:17:41.048Z,100982.50
2022-08-12T23:23:05.768Z,100995.03
2022-08-12T23:28:29.927Z,100986.66
2022-08-12T23:34:01.432Z,101002.91
2022-08-12T23:39:01.657Z,100997.84
2022-08-12T23:44:06.725Z,100998.22
2022-08-12T23:49:27.063Z,100998.47
2022-08-12T23:54:33.255Z,101004.59
2022-08-12T23:59:47.203Z,101002.06
